createdAt,value
2017-07-16T00:00:26.997Z,80.19
2017-07-16T00:01:28.886Z,80.19
2017-07-16T00:02:30.760Z,80.00
2017-07-16T00:03:32.593Z,79.91
2017-07-16T00:04:34.421Z,79.62
2017-07-16T00:05:36.292Z,79.81
2017-07-16T00:06:38.165Z,80.19
2017-07-16T00:07:40.034Z,79.87
2017-07-16T00:08:54.183Z,80.19
2017-07-16T00:09:56.047Z,80.25
2017-07-16T00:10:57.914Z,80.48
2017-07-16T00:11:59.785Z,80.38
2017-07-16T00:13:01.616Z,79.87
2017-07-16T00:14:03.417Z,80.82
2017-07-16T00:15:05.292Z,80.82
2017-07-16T00:16:07.182Z,80.92
2017-07-16T00:17:09.055Z,80.54
2017-07-16T00:18:23.216Z,80.92
2017-07-16T00:19:25.084Z,80.82
2017-07-16T00:20:26.952Z,80.73
2017-07-16T00:21:28.820Z,80.82
2017-07-16T00:22:30.622Z,80.92
2017-07-16T00:23:32.429Z,80.44
2017-07-16T00:24:34.307Z,80.44
2017-07-16T00:25:36.203Z,80.73
2017-07-16T00:26:38.091Z,80.44
2017-07-16T00:27:52.319Z,80.54
2017-07-16T00:28:54.203Z,81.02
2017-07-16T00:29:56.075Z,81.02
2017-07-16T00:30:57.969Z,81.11
2017-07-16T00:31:59.804Z,81.11
2017-07-16T00:33:01.628Z,80.44
2017-07-16T00:34:03.500Z,81.11
2017-07-16T00:35:05.376Z,81.11
2017-07-16T00:36:07.259Z,81.11
2017-07-16T00:37:21.406Z,81.21
2017-07-16T00:38:23.298Z,81.11
2017-07-16T00:39:25.182Z,81.02
2017-07-16T00:40:27.049Z,80.44
2017-07-16T00:41:28.861Z,80.82
2017-07-16T00:42:30.668Z,80.73
2017-07-16T00:43:32.538Z,80.92
2017-07-16T00:44:34.411Z,80.82
2017-07-16T00:45:36.306Z,80.58
2017-07-16T00:46:50.475Z,80.96
2017-07-16T00:47:52.365Z,80.82
2017-07-16T00:48:54.256Z,80.10
2017-07-16T00:49:56.154Z,80.10
2017-07-16T00:50:57.983Z,80.10
2017-07-16T00:51:59.791Z,80.38
2017-07-16T00:53:01.681Z,80.58
2017-07-16T00:54:03.568Z,79.91
2017-07-16T00:55:05.439Z,80.19
2017-07-16T00:56:19.639Z,80.19
2017-07-16T00:57:21.480Z,79.81
2017-07-16T00:58:23.339Z,79.72
2017-07-16T00:59:25.231Z,80.10
2017-07-16T01:00:27.044Z,79.72
2017-07-16T01:01:28.848Z,79.81
2017-07-16T01:02:30.716Z,80.19
2017-07-16T01:03:32.584Z,79.91
2017-07-16T01:04:34.456Z,80.10
2017-07-16T01:05:48.620Z,80.10
2017-07-16T01:06:50.484Z,79.91
2017-07-16T01:07:52.350Z,79.91
2017-07-16T01:08:54.216Z,79.72
2017-07-16T01:09:56.023Z,80.10
2017-07-16T01:10:57.848Z,79.81
2017-07-16T01:11:59.714Z,80.10
2017-07-16T01:13:01.581Z,79.91
2017-07-16T01:14:03.447Z,79.91
2017-07-16T01:15:17.609Z,79.91
2017-07-16T01:16:19.480Z,79.52
2017-07-16T01:17:21.366Z,79.81
2017-07-16T01:18:23.270Z,79.91
2017-07-16T01:19:25.058Z,79.91
2017-07-16T01:20:26.885Z,80.19
2017-07-16T01:21:28.768Z,80.00
2017-07-16T01:22:30.636Z,79.52
2017-07-16T01:23:32.526Z,79.72
2017-07-16T01:24:46.692Z,79.62
2017-07-16T01:25:48.580Z,79.43
2017-07-16T01:26:50.490Z,79.81
2017-07-16T01:27:52.336Z,79.43
2017-07-16T01:28:54.168Z,79.81
2017-07-16T01:29:55.991Z,79.91
2017-07-16T01:30:57.857Z,80.10
2017-07-16T01:31:59.716Z,79.81
2017-07-16T01:33:01.582Z,80.29
2017-07-16T01:34:15.743Z,79.91
2017-07-16T01:35:17.615Z,80.29
2017-07-16T01:36:19.510Z,80.33
2017-07-16T01:37:21.372Z,80.58
2017-07-16T01:38:23.185Z,80.33
2017-07-16T01:39:24.984Z,80.33
2017-07-16T01:40:26.854Z,80.43
2017-07-16T01:41:28.738Z,80.33
2017-07-16T01:42:30.607Z,80.43
2017-07-16T01:43:44.773Z,80.33
2017-07-16T01:44:46.660Z,80.14
2017-07-16T01:45:48.524Z,80.71
2017-07-16T01:46:50.414Z,80.43
2017-07-16T01:47:52.242Z,80.43
2017-07-16T01:48:54.048Z,80.33
2017-07-16T01:49:55.936Z,80.52
2017-07-16T01:50:57.824Z,80.43
2017-07-16T01:51:59.693Z,81.00
2017-07-16T01:53:13.850Z,80.81
2017-07-16T01:54:15.718Z,81.00
2017-07-16T01:55:17.607Z,80.71
2017-07-16T01:56:19.466Z,80.52
2017-07-16T01:57:21.285Z,80.24
2017-07-16T01:58:23.107Z,80.33
2017-07-16T01:59:24.994Z,80.33
2017-07-16T02:00:26.861Z,80.10
2017-07-16T02:01:28.724Z,80.48
2017-07-16T02:02:42.858Z,80.29
2017-07-16T02:03:44.726Z,80.33
2017-07-16T02:04:46.594Z,80.38
2017-07-16T02:05:48.483Z,80.52
2017-07-16T02:06:50.316Z,80.58
2017-07-16T02:07:52.146Z,80.29
2017-07-16T02:08:54.036Z,80.00
2017-07-16T02:09:55.928Z,80.29
2017-07-16T02:10:57.792Z,80.38
2017-07-16T02:12:11.954Z,80.67
2017-07-16T02:13:13.824Z,80.77
2017-07-16T02:14:15.693Z,80.38
2017-07-16T02:15:17.584Z,81.15
2017-07-16T02:16:19.413Z,80.71
2017-07-16T02:17:21.214Z,80.87
2017-07-16T02:18:23.082Z,80.96
2017-07-16T02:19:24.947Z,81.20
2017-07-16T02:20:26.812Z,80.87
2017-07-16T02:21:40.953Z,80.87
2017-07-16T02:22:42.824Z,80.81
2017-07-16T02:23:44.709Z,80.29
2017-07-16T02:24:46.585Z,80.77
2017-07-16T02:25:48.413Z,80.81
2017-07-16T02:26:50.241Z,80.90
2017-07-16T02:27:52.130Z,80.87
2017-07-16T02:28:53.997Z,80.77
2017-07-16T02:29:55.861Z,80.48
2017-07-16T02:31:10.000Z,81.20
2017-07-16T02:32:11.872Z,81.00
2017-07-16T02:33:13.789Z,80.77
2017-07-16T02:34:15.629Z,81.20
2017-07-16T02:35:17.442Z,80.96
2017-07-16T02:36:19.239Z,81.38
2017-07-16T02:37:21.108Z,81.00
2017-07-16T02:38:22.994Z,81.38
2017-07-16T02:39:24.865Z,81.10
2017-07-16T02:40:39.028Z,81.38
2017-07-16T02:41:40.896Z,81.15
2017-07-16T02:42:42.783Z,81.10
2017-07-16T02:43:44.652Z,81.20
2017-07-16T02:44:46.460Z,81.38
2017-07-16T02:45:48.277Z,81.34
2017-07-16T02:46:50.146Z,81.20
2017-07-16T02:47:52.032Z,81.20
2017-07-16T02:48:53.904Z,80.81
2017-07-16T02:50:08.059Z,81.10
2017-07-16T02:51:09.930Z,81.05
2017-07-16T02:52:11.823Z,81.10
2017-07-16T02:53:13.716Z,80.90
2017-07-16T02:54:15.547Z,81.38
2017-07-16T02:55:17.348Z,81.29
2017-07-16T02:56:19.221Z,80.96
2017-07-16T02:57:21.110Z,81.57
2017-07-16T02:58:22.981Z,81.63
2017-07-16T02:59:37.118Z,81.48
2017-07-16T03:00:38.985Z,82.01
2017-07-16T03:01:40.855Z,82.15
2017-07-16T03:02:42.754Z,81.86
2017-07-16T03:03:44.586Z,82.24
2017-07-16T03:04:46.422Z,81.57
2017-07-16T03:05:48.313Z,81.67
2017-07-16T03:06:50.181Z,81.57
2017-07-16T03:07:52.048Z,81.67
2017-07-16T03:09:06.188Z,81.57
2017-07-16T03:10:08.056Z,81.67
2017-07-16T03:11:09.928Z,81.77
2017-07-16T03:12:11.831Z,82.06
2017-07-16T03:13:13.657Z,81.48
2017-07-16T03:14:15.467Z,81.48
2017-07-16T03:15:17.330Z,81.29
2017-07-16T03:16:19.205Z,81.10
2017-07-16T03:17:21.070Z,81.04
2017-07-16T03:18:35.211Z,80.66
2017-07-16T03:19:37.103Z,80.37
2017-07-16T03:20:38.983Z,79.99
2017-07-16T03:21:40.873Z,79.89
2017-07-16T03:22:42.705Z,79.45
2017-07-16T03:23:44.515Z,78.78
2017-07-16T03:24:46.416Z,78.49
2017-07-16T03:25:48.276Z,78.59
2017-07-16T03:26:50.172Z,78.25
2017-07-16T03:28:04.337Z,77.67
2017-07-16T03:29:06.231Z,77.09
2017-07-16T03:30:08.099Z,76.04
2017-07-16T03:31:09.973Z,75.89
2017-07-16T03:32:11.783Z,76.37
2017-07-16T03:33:13.590Z,75.31
2017-07-16T03:34:15.470Z,75.54
2017-07-16T03:35:17.357Z,75.15
2017-07-16T03:36:19.228Z,74.58
2017-07-16T03:37:33.422Z,74.87
2017-07-16T03:38:35.293Z,73.94
2017-07-16T03:39:37.167Z,73.46
2017-07-16T03:40:39.061Z,72.89
2017-07-16T03:41:40.871Z,72.83
2017-07-16T03:42:42.684Z,72.44
2017-07-16T03:43:44.553Z,72.16
2017-07-16T03:44:46.424Z,71.67
2017-07-16T03:45:48.302Z,71.33
2017-07-16T03:47:02.439Z,70.84
2017-07-16T03:48:04.316Z,70.07
2017-07-16T03:49:06.208Z,69.79
2017-07-16T03:50:08.080Z,69.40
2017-07-16T03:51:09.891Z,69.02
2017-07-16T03:52:11.705Z,68.76
2017-07-16T03:53:13.580Z,68.19
2017-07-16T03:54:15.469Z,67.83
2017-07-16T03:55:17.346Z,67.26
2017-07-16T03:56:31.514Z,66.58
2017-07-16T03:57:33.387Z,66.14
2017-07-16T03:58:35.260Z,65.37
2017-07-16T03:59:37.162Z,64.12
2017-07-16T04:00:38.971Z,64.21
2017-07-16T04:01:40.810Z,63.54
2017-07-16T04:02:42.705Z,63.64
2017-07-16T04:03:44.580Z,63.73
2017-07-16T04:04:46.452Z,62.99
2017-07-16T04:06:00.622Z,62.41
2017-07-16T04:07:02.491Z,62.22
2017-07-16T04:08:04.364Z,62.32
2017-07-16T04:09:06.263Z,61.87
2017-07-16T04:10:08.075Z,61.87
2017-07-16T04:11:09.913Z,61.19
2017-07-16T04:12:11.784Z,61.22
2017-07-16T04:13:13.677Z,60.55
2017-07-16T04:14:15.557Z,60.45
2017-07-16T04:15:29.730Z,60.19
2017-07-16T04:16:31.626Z,59.42
2017-07-16T04:17:33.502Z,59.06
2017-07-16T04:18:35.400Z,58.48
2017-07-16T04:19:37.238Z,58.10
2017-07-16T04:20:39.049Z,57.42
2017-07-16T04:21:40.942Z,57.26
2017-07-16T04:22:42.817Z,57.45
2017-07-16T04:23:44.714Z,57.26
2017-07-16T04:24:58.888Z,56.58
2017-07-16T04:26:00.784Z,56.20
2017-07-16T04:27:02.660Z,56.29
2017-07-16T04:28:04.534Z,56.58
2017-07-16T04:29:06.345Z,56.58
2017-07-16T04:30:08.160Z,56.74
2017-07-16T04:31:10.038Z,56.65
2017-07-16T04:32:11.934Z,56.39
2017-07-16T04:33:13.815Z,56.48
2017-07-16T04:34:27.961Z,55.52
2017-07-16T04:35:29.834Z,55.71
2017-07-16T04:36:31.712Z,56.07
2017-07-16T04:37:33.613Z,55.88
2017-07-16T04:38:35.431Z,56.65
2017-07-16T04:39:37.270Z,56.26
2017-07-16T04:40:39.172Z,55.88
2017-07-16T04:41:41.072Z,56.26
2017-07-16T04:42:42.944Z,56.26
2017-07-16T04:43:57.117Z,56.26
2017-07-16T04:44:58.991Z,56.56
2017-07-16T04:46:00.867Z,56.56
2017-07-16T04:47:02.763Z,56.07
2017-07-16T04:48:04.582Z,56.84
2017-07-16T04:49:06.396Z,56.56
2017-07-16T04:50:08.272Z,56.56
2017-07-16T04:51:10.151Z,56.56
2017-07-16T04:52:12.022Z,56.56
2017-07-16T04:53:26.181Z,56.62
2017-07-16T04:54:28.076Z,56.62
2017-07-16T04:55:29.974Z,57.10
2017-07-16T04:56:31.876Z,57.20
2017-07-16T04:57:33.720Z,56.62
2017-07-16T04:58:35.527Z,56.65
2017-07-16T04:59:37.399Z,56.26
2017-07-16T05:00:39.276Z,56.56
2017-07-16T05:01:41.154Z,55.52
2017-07-16T05:02:55.325Z,55.90
2017-07-16T05:03:57.199Z,55.33
2017-07-16T05:04:59.075Z,55.23
2017-07-16T05:06:00.949Z,55.23
2017-07-16T05:07:02.769Z,55.23
2017-07-16T05:08:04.640Z,55.13
2017-07-16T05:09:06.480Z,55.42
2017-07-16T05:10:08.355Z,55.49
2017-07-16T05:11:10.231Z,56.00
2017-07-16T05:12:24.379Z,56.00
2017-07-16T05:13:26.248Z,55.33
2017-07-16T05:14:28.125Z,55.26
2017-07-16T05:15:29.997Z,54.75
2017-07-16T05:16:31.818Z,55.16
2017-07-16T05:17:33.630Z,54.97
2017-07-16T05:18:35.508Z,54.87
2017-07-16T05:19:37.405Z,54.77
2017-07-16T05:20:39.277Z,54.39
2017-07-16T05:21:53.476Z,54.39
2017-07-16T05:22:55.353Z,54.32
2017-07-16T05:23:57.229Z,53.55
2017-07-16T05:24:59.129Z,53.35
2017-07-16T05:26:00.968Z,53.45
2017-07-16T05:27:02.785Z,53.55
2017-07-16T05:28:04.662Z,52.99
2017-07-16T05:29:06.536Z,52.29
2017-07-16T05:30:08.430Z,52.80
2017-07-16T05:31:22.582Z,52.99
2017-07-16T05:32:24.456Z,52.89
2017-07-16T05:33:26.332Z,52.80
2017-07-16T05:34:28.233Z,52.14
2017-07-16T05:35:30.073Z,51.76
2017-07-16T05:36:31.884Z,51.66
2017-07-16T05:37:33.757Z,51.54
2017-07-16T05:38:35.634Z,52.12
2017-07-16T05:39:37.509Z,52.87
2017-07-16T05:40:51.679Z,54.39
2017-07-16T05:41:53.551Z,55.45
2017-07-16T05:42:55.425Z,55.52
2017-07-16T05:43:57.327Z,56.36
2017-07-16T05:44:59.164Z,57.62
2017-07-16T05:46:00.980Z,57.97
2017-07-16T05:47:02.877Z,58.45
2017-07-16T05:48:04.748Z,58.84
2017-07-16T05:49:06.628Z,59.30
2017-07-16T05:50:20.810Z,60.03
2017-07-16T05:51:22.710Z,61.10
2017-07-16T05:52:24.609Z,61.29
2017-07-16T05:53:26.482Z,61.83
2017-07-16T05:54:28.319Z,62.51
2017-07-16T05:55:30.130Z,62.60
2017-07-16T05:56:32.025Z,62.70
2017-07-16T05:57:33.897Z,62.51
2017-07-16T05:58:35.776Z,62.90
2017-07-16T05:59:49.943Z,62.90
2017-07-16T06:00:51.814Z,63.73
2017-07-16T06:01:53.688Z,63.92
2017-07-16T06:02:55.561Z,64.40
2017-07-16T06:03:57.386Z,64.31
2017-07-16T06:04:59.213Z,64.69
2017-07-16T06:06:01.107Z,65.37
2017-07-16T06:07:02.980Z,65.75
2017-07-16T06:08:04.879Z,64.69
2017-07-16T06:09:19.046Z,64.79
2017-07-16T06:10:20.916Z,65.43
2017-07-16T06:11:22.789Z,65.81
2017-07-16T06:12:24.661Z,67.07
2017-07-16T06:13:26.473Z,66.30
2017-07-16T06:14:28.287Z,66.20
2017-07-16T06:15:30.155Z,66.30
2017-07-16T06:16:32.030Z,66.49
2017-07-16T06:17:33.925Z,66.58
2017-07-16T06:18:48.092Z,67.35
2017-07-16T06:19:49.968Z,67.35
2017-07-16T06:20:51.850Z,67.74
2017-07-16T06:21:53.742Z,67.29
2017-07-16T06:22:55.561Z,67.10
2017-07-16T06:23:57.394Z,67.29
2017-07-16T06:24:59.295Z,67.10
2017-07-16T06:26:01.167Z,67.00
2017-07-16T06:27:03.040Z,67.10
2017-07-16T06:28:17.216Z,67.29
2017-07-16T06:29:19.112Z,67.33
2017-07-16T06:30:21.014Z,67.33
2017-07-16T06:31:22.909Z,67.13
2017-07-16T06:32:24.736Z,66.65
2017-07-16T06:33:26.543Z,66.17
2017-07-16T06:34:28.415Z,66.04
2017-07-16T06:35:30.286Z,66.14
2017-07-16T06:36:32.157Z,66.52
2017-07-16T06:37:46.313Z,66.91
2017-07-16T06:38:48.206Z,66.04
2017-07-16T06:39:50.076Z,66.24
2017-07-16T06:40:51.955Z,66.91
2017-07-16T06:41:53.790Z,66.81
2017-07-16T06:42:55.622Z,67.03
2017-07-16T06:43:57.497Z,66.85
2017-07-16T06:44:59.371Z,67.23
2017-07-16T06:46:01.242Z,67.03
2017-07-16T06:47:15.462Z,66.85
2017-07-16T06:48:17.360Z,67.03
2017-07-16T06:49:19.232Z,67.03
2017-07-16T06:50:21.312Z,67.03
2017-07-16T06:51:23.740Z,67.13
2017-07-16T06:52:25.573Z,66.85
2017-07-16T06:53:27.466Z,66.36
2017-07-16T06:54:29.340Z,66.36
2017-07-16T06:55:31.208Z,65.59
2017-07-16T06:56:45.360Z,65.69
2017-07-16T06:57:47.260Z,65.69
2017-07-16T06:58:49.159Z,66.36
2017-07-16T06:59:51.041Z,65.50
2017-07-16T07:00:52.881Z,65.69
2017-07-16T07:01:54.714Z,65.59
2017-07-16T07:02:56.609Z,66.07
2017-07-16T07:03:58.481Z,66.85
2017-07-16T07:05:00.355Z,66.27
2017-07-16T07:06:14.499Z,65.69
2017-07-16T07:07:16.374Z,66.17
2017-07-16T07:08:18.243Z,66.36
2017-07-16T07:09:20.118Z,65.30
2017-07-16T07:10:21.932Z,65.85
2017-07-16T07:11:23.764Z,65.56
2017-07-16T07:12:25.643Z,66.14
2017-07-16T07:13:27.537Z,66.04
2017-07-16T07:14:29.411Z,65.56
2017-07-16T07:15:43.583Z,65.56
2017-07-16T07:16:45.480Z,65.56
2017-07-16T07:17:47.354Z,65.27
2017-07-16T07:18:49.249Z,65.56
2017-07-16T07:19:51.065Z,65.72
2017-07-16T07:20:52.896Z,65.91
2017-07-16T07:21:54.774Z,65.53
2017-07-16T07:22:56.670Z,65.72
2017-07-16T07:23:58.561Z,65.43
2017-07-16T07:25:12.710Z,65.72
2017-07-16T07:26:14.590Z,65.53
2017-07-16T07:27:16.484Z,65.62
2017-07-16T07:28:18.363Z,64.86
2017-07-16T07:29:20.195Z,65.53
2017-07-16T07:30:22.011Z,65.24
2017-07-16T07:31:23.903Z,64.95
2017-07-16T07:32:25.774Z,65.33
2017-07-16T07:33:27.647Z,65.37
2017-07-16T07:34:41.822Z,64.89
2017-07-16T07:35:43.731Z,64.50
2017-07-16T07:36:45.592Z,64.79
2017-07-16T07:37:47.481Z,64.31
2017-07-16T07:38:49.301Z,64.98
2017-07-16T07:39:51.133Z,64.40
2017-07-16T07:40:53.003Z,64.12
2017-07-16T07:41:54.877Z,64.12
2017-07-16T07:42:56.757Z,64.69
2017-07-16T07:44:10.899Z,65.50
2017-07-16T07:45:12.791Z,64.92
2017-07-16T07:46:14.669Z,64.15
2017-07-16T07:47:16.568Z,63.85
2017-07-16T07:48:18.412Z,63.57
2017-07-16T07:49:20.247Z,63.38
2017-07-16T07:50:22.145Z,63.57
2017-07-16T07:51:24.036Z,63.70
2017-07-16T07:52:25.914Z,62.73
2017-07-16T07:53:40.087Z,62.54
2017-07-16T07:54:41.959Z,61.77
2017-07-16T07:55:43.831Z,61.71
2017-07-16T07:56:45.733Z,61.90
2017-07-16T07:57:47.569Z,60.86
2017-07-16T07:58:49.390Z,59.42
2017-07-16T07:59:51.291Z,58.75
2017-07-16T08:00:53.186Z,58.58
2017-07-16T08:01:55.062Z,57.52
2017-07-16T08:03:09.207Z,57.23
2017-07-16T08:04:11.082Z,56.68
2017-07-16T08:05:12.956Z,56.68
2017-07-16T08:06:14.832Z,55.81
2017-07-16T08:07:16.672Z,55.90
2017-07-16T08:08:18.487Z,55.13
2017-07-16T08:09:20.361Z,55.35
2017-07-16T08:10:22.237Z,55.26
2017-07-16T08:11:24.116Z,55.26
2017-07-16T08:12:38.263Z,55.29
2017-07-16T08:13:40.140Z,55.31
2017-07-16T08:14:42.039Z,53.86
2017-07-16T08:15:43.933Z,53.41
2017-07-16T08:16:45.754Z,52.73
2017-07-16T08:17:47.601Z,51.47
2017-07-16T08:18:49.476Z,51.10
2017-07-16T08:19:51.352Z,51.88
2017-07-16T08:20:53.230Z,51.59
2017-07-16T08:22:07.400Z,51.52
2017-07-16T08:23:09.278Z,51.06
2017-07-16T08:24:11.155Z,50.77
2017-07-16T08:25:13.054Z,50.60
2017-07-16T08:26:14.876Z,48.66
2017-07-16T08:27:16.713Z,48.57
2017-07-16T08:28:18.590Z,48.57
2017-07-16T08:29:20.489Z,48.85
2017-07-16T08:30:22.384Z,48.18
2017-07-16T08:31:36.541Z,47.72
2017-07-16T08:32:38.436Z,47.60
2017-07-16T08:33:40.319Z,47.30
2017-07-16T08:34:42.223Z,47.50
2017-07-16T08:35:44.070Z,47.86
2017-07-16T08:36:45.886Z,48.06
2017-07-16T08:37:47.756Z,48.64
2017-07-16T08:38:49.633Z,48.66
2017-07-16T08:39:51.515Z,49.34
2017-07-16T08:41:05.689Z,48.08
2017-07-16T08:42:07.564Z,47.50
2017-07-16T08:43:09.441Z,47.89
2017-07-16T08:44:11.316Z,48.08
2017-07-16T08:45:13.138Z,48.08
2017-07-16T08:46:14.948Z,48.08
2017-07-16T08:47:16.768Z,48.47
2017-07-16T08:48:18.585Z,48.85
2017-07-16T08:49:20.424Z,48.18
2017-07-16T08:50:34.596Z,48.25
2017-07-16T08:51:36.475Z,48.64
2017-07-16T08:52:38.375Z,47.94
2017-07-16T08:53:40.253Z,48.22
2017-07-16T08:54:42.072Z,48.81
2017-07-16T08:55:43.888Z,49.02
2017-07-16T08:56:45.787Z,49.44
2017-07-16T08:57:47.658Z,49.27
2017-07-16T08:58:49.538Z,48.78
2017-07-16T09:00:03.691Z,47.74
2017-07-16T09:01:05.566Z,47.45
2017-07-16T09:02:07.448Z,47.08
2017-07-16T09:03:09.350Z,47.28
2017-07-16T09:04:11.192Z,46.98
2017-07-16T09:05:13.033Z,47.08
2017-07-16T09:06:14.934Z,46.21
2017-07-16T09:07:16.836Z,46.60
2017-07-16T09:08:18.710Z,46.69
2017-07-16T09:09:32.863Z,46.14
2017-07-16T09:10:34.748Z,45.07
2017-07-16T09:11:36.650Z,44.97
2017-07-16T09:12:38.529Z,45.45
2017-07-16T09:13:40.351Z,45.94
2017-07-16T09:14:42.169Z,45.24
2017-07-16T09:15:44.045Z,44.37
2017-07-16T09:16:45.942Z,45.12
2017-07-16T09:17:47.825Z,45.61
2017-07-16T09:19:01.999Z,46.38
2017-07-16T09:20:03.879Z,46.60
2017-07-16T09:21:05.752Z,45.92
2017-07-16T09:22:07.638Z,44.97
2017-07-16T09:23:09.484Z,43.71
2017-07-16T09:24:11.299Z,41.86
2017-07-16T09:25:13.197Z,41.77
2017-07-16T09:26:15.079Z,43.32
2017-07-16T09:27:16.955Z,43.51
2017-07-16T09:28:31.107Z,42.15
2017-07-16T09:29:32.989Z,42.66
2017-07-16T09:30:34.869Z,42.66
2017-07-16T09:31:36.767Z,41.59
2017-07-16T09:32:38.589Z,41.69
2017-07-16T09:33:40.402Z,41.13
2017-07-16T09:34:42.287Z,40.54
2017-07-16T09:35:44.187Z,40.08
2017-07-16T09:36:46.086Z,39.98
2017-07-16T09:38:00.239Z,39.80
2017-07-16T09:39:02.117Z,39.70
2017-07-16T09:40:03.993Z,39.80
2017-07-16T09:41:05.874Z,38.46
2017-07-16T09:42:07.694Z,38.24
2017-07-16T09:43:09.539Z,37.08
2017-07-16T09:44:11.442Z,37.06
2017-07-16T09:45:13.347Z,37.34
2017-07-16T09:46:15.248Z,37.90
2017-07-16T09:47:29.498Z,39.16
2017-07-16T09:48:31.380Z,37.98
2017-07-16T09:49:33.283Z,38.07
2017-07-16T09:50:35.187Z,37.98
2017-07-16T09:51:37.008Z,38.27
2017-07-16T09:52:38.828Z,39.14
2017-07-16T09:53:40.722Z,39.90
2017-07-16T09:54:42.601Z,39.70
2017-07-16T09:55:44.486Z,39.69
2017-07-16T09:56:58.661Z,39.59
2017-07-16T09:58:00.564Z,39.98
2017-07-16T09:59:02.446Z,40.54
2017-07-16T10:00:04.348Z,40.25
2017-07-16T10:01:06.166Z,40.25
2017-07-16T10:02:08.012Z,40.64
2017-07-16T10:03:09.913Z,41.24
2017-07-16T10:04:11.791Z,40.95
2017-07-16T10:05:13.685Z,40.67
2017-07-16T10:06:27.846Z,40.60
2017-07-16T10:07:29.747Z,40.09
2017-07-16T10:08:31.631Z,40.09
2017-07-16T10:09:33.531Z,40.56
2017-07-16T10:10:35.373Z,41.16
2017-07-16T10:11:37.195Z,41.06
2017-07-16T10:12:39.100Z,40.60
2017-07-16T10:13:40.994Z,39.04
2017-07-16T10:14:42.873Z,37.98
2017-07-16T10:15:57.024Z,37.39
2017-07-16T10:16:58.905Z,37.20
2017-07-16T10:18:00.781Z,37.57
2017-07-16T10:19:02.664Z,37.37
2017-07-16T10:20:04.506Z,37.84
2017-07-16T10:21:06.325Z,38.73
2017-07-16T10:22:08.204Z,39.12
2017-07-16T10:23:10.106Z,39.12
2017-07-16T10:24:12.006Z,38.91
2017-07-16T10:25:26.158Z,39.20
2017-07-16T10:26:28.039Z,39.69
2017-07-16T10:27:29.937Z,39.20
2017-07-16T10:28:31.843Z,39.78
2017-07-16T10:29:33.682Z,39.80
2017-07-16T10:30:35.499Z,39.90
2017-07-16T10:31:37.400Z,39.43
2017-07-16T10:32:39.305Z,39.26
2017-07-16T10:33:41.204Z,39.45
2017-07-16T10:34:55.406Z,39.62
2017-07-16T10:35:57.311Z,39.32
2017-07-16T10:36:59.186Z,39.88
2017-07-16T10:38:01.066Z,39.95
2017-07-16T10:39:02.906Z,39.94
2017-07-16T10:40:04.727Z,40.40
2017-07-16T10:41:06.633Z,41.27
2017-07-16T10:42:08.505Z,42.05
2017-07-16T10:43:10.381Z,43.60
2017-07-16T10:44:24.537Z,42.54
2017-07-16T10:45:26.442Z,41.47
2017-07-16T10:46:28.345Z,41.95
2017-07-16T10:47:30.244Z,43.41
2017-07-16T10:48:32.064Z,43.43
2017-07-16T10:49:33.880Z,42.17
2017-07-16T10:50:35.780Z,42.57
2017-07-16T10:51:37.661Z,42.57
2017-07-16T10:52:39.558Z,42.50
2017-07-16T10:53:53.711Z,42.50
2017-07-16T10:54:55.587Z,42.43
2017-07-16T10:55:57.467Z,41.64
2017-07-16T10:56:59.371Z,40.11
2017-07-16T10:58:01.207Z,40.21
2017-07-16T10:59:03.026Z,39.92
2017-07-16T11:00:04.902Z,40.01
2017-07-16T11:01:06.777Z,40.21
2017-07-16T11:02:08.656Z,39.75
2017-07-16T11:03:22.834Z,39.65
2017-07-16T11:04:24.714Z,39.57
2017-07-16T11:05:26.616Z,39.08
2017-07-16T11:06:28.520Z,38.70
2017-07-16T11:07:30.365Z,37.99
2017-07-16T11:08:32.201Z,38.57
2017-07-16T11:09:34.083Z,39.45
2017-07-16T11:10:35.961Z,40.23
2017-07-16T11:11:37.861Z,40.52
2017-07-16T11:12:52.015Z,40.34
2017-07-16T11:13:53.893Z,39.47
2017-07-16T11:14:55.793Z,38.89
2017-07-16T11:15:57.674Z,38.52
2017-07-16T11:16:59.517Z,38.62
2017-07-16T11:18:01.368Z,38.23
2017-07-16T11:19:03.257Z,38.44
2017-07-16T11:20:05.146Z,37.35
2017-07-16T11:21:07.046Z,37.56
2017-07-16T11:22:21.221Z,38.32
2017-07-16T11:23:23.102Z,38.42
2017-07-16T11:24:25.003Z,37.54
2017-07-16T11:25:26.883Z,37.16
2017-07-16T11:26:28.705Z,36.75
2017-07-16T11:27:30.548Z,37.99
2017-07-16T11:28:32.446Z,38.87
2017-07-16T11:29:34.326Z,38.67
2017-07-16T11:30:36.228Z,38.48
2017-07-16T11:31:50.384Z,39.16
2017-07-16T11:32:52.280Z,39.26
2017-07-16T11:33:54.163Z,40.13
2017-07-16T11:34:56.064Z,39.82
2017-07-16T11:35:57.885Z,39.03
2017-07-16T11:36:59.706Z,38.83
2017-07-16T11:38:01.606Z,39.61
2017-07-16T11:39:03.483Z,40.08
2017-07-16T11:40:05.384Z,40.66
2017-07-16T11:41:19.565Z,40.19
2017-07-16T11:42:21.466Z,40.00
2017-07-16T11:43:23.347Z,40.01
2017-07-16T11:44:25.243Z,40.52
2017-07-16T11:45:27.063Z,39.86
2017-07-16T11:46:28.884Z,38.89
2017-07-16T11:47:30.758Z,38.62
2017-07-16T11:48:32.638Z,37.85
2017-07-16T11:49:34.518Z,36.98
2017-07-16T11:50:48.675Z,36.30
2017-07-16T11:51:50.580Z,35.99
2017-07-16T11:52:52.458Z,36.36
2017-07-16T11:53:54.357Z,36.75
2017-07-16T11:54:56.177Z,36.94
2017-07-16T11:55:57.999Z,36.75
2017-07-16T11:56:59.899Z,35.57
2017-07-16T11:58:01.772Z,34.98
2017-07-16T11:59:03.653Z,35.47
2017-07-16T12:00:17.829Z,35.37
2017-07-16T12:01:19.702Z,35.88
2017-07-16T12:02:21.578Z,36.26
2017-07-16T12:03:23.459Z,35.68
2017-07-16T12:04:25.288Z,36.05
2017-07-16T12:05:27.123Z,35.76
2017-07-16T12:06:29.002Z,36.54
2017-07-16T12:07:30.879Z,37.41
2017-07-16T12:08:32.758Z,37.02
2017-07-16T12:09:46.933Z,37.12
2017-07-16T12:10:48.809Z,36.94
2017-07-16T12:11:50.692Z,36.57
2017-07-16T12:12:52.597Z,35.70
2017-07-16T12:13:54.439Z,35.52
2017-07-16T12:14:56.279Z,35.81
2017-07-16T12:15:58.181Z,33.65
2017-07-16T12:17:00.063Z,33.15
2017-07-16T12:18:01.965Z,34.32
2017-07-16T12:19:16.144Z,34.61
2017-07-16T12:20:18.050Z,34.61
2017-07-16T12:21:19.950Z,35.29
2017-07-16T12:22:21.853Z,35.80
2017-07-16T12:23:23.700Z,35.80
2017-07-16T12:24:25.540Z,35.71
2017-07-16T12:25:27.422Z,35.23
2017-07-16T12:26:29.303Z,35.42
2017-07-16T12:27:31.198Z,35.25
2017-07-16T12:28:45.350Z,35.61
2017-07-16T12:29:47.236Z,35.81
2017-07-16T12:30:49.144Z,36.20
2017-07-16T12:31:51.043Z,36.98
2017-07-16T12:32:52.867Z,37.27
2017-07-16T12:33:54.711Z,35.73
2017-07-16T12:34:56.611Z,35.53
2017-07-16T12:35:58.493Z,34.86
2017-07-16T12:37:00.369Z,34.68
2017-07-16T12:38:14.522Z,33.49
2017-07-16T12:39:16.410Z,33.49
2017-07-16T12:40:18.314Z,33.88
2017-07-16T12:41:20.199Z,33.38
2017-07-16T12:42:22.026Z,33.77
2017-07-16T12:43:23.863Z,34.27
2017-07-16T12:44:25.744Z,34.29
2017-07-16T12:45:27.626Z,34.40
2017-07-16T12:46:29.501Z,34.61
2017-07-16T12:47:43.655Z,33.85
2017-07-16T12:48:45.535Z,32.97
2017-07-16T12:49:47.413Z,32.58
2017-07-16T12:50:49.294Z,32.57
2017-07-16T12:51:51.121Z,33.34
2017-07-16T12:52:52.961Z,34.11
2017-07-16T12:53:54.839Z,34.68
2017-07-16T12:54:56.724Z,35.05
2017-07-16T12:55:58.603Z,35.03
2017-07-16T12:57:12.783Z,36.00
2017-07-16T12:58:14.661Z,36.00
2017-07-16T12:59:16.541Z,36.40
2017-07-16T13:00:18.440Z,36.67
2017-07-16T13:01:20.263Z,35.60
2017-07-16T13:02:22.086Z,35.89
2017-07-16T13:03:23.987Z,36.00
2017-07-16T13:04:25.887Z,35.81
2017-07-16T13:05:27.765Z,35.42
2017-07-16T13:06:41.948Z,36.30
2017-07-16T13:07:43.828Z,36.12
2017-07-16T13:08:45.728Z,35.93
2017-07-16T13:09:47.610Z,35.77
2017-07-16T13:10:49.430Z,34.99
2017-07-16T13:11:51.249Z,35.18
2017-07-16T13:12:53.147Z,34.39
2017-07-16T13:13:55.031Z,34.17
2017-07-16T13:14:56.932Z,34.64
2017-07-16T13:16:11.089Z,34.95
2017-07-16T13:17:12.966Z,35.44
2017-07-16T13:18:14.849Z,34.39
2017-07-16T13:19:16.751Z,33.51
2017-07-16T13:20:18.575Z,33.02
2017-07-16T13:21:20.396Z,32.42
2017-07-16T13:22:22.294Z,32.81
2017-07-16T13:23:24.170Z,33.11
2017-07-16T13:24:26.049Z,33.18
2017-07-16T13:25:40.203Z,33.86
2017-07-16T13:26:42.084Z,34.37
2017-07-16T13:27:43.969Z,34.08
2017-07-16T13:28:45.868Z,33.59
2017-07-16T13:29:47.691Z,33.59
2017-07-16T13:30:49.510Z,33.59
2017-07-16T13:31:51.391Z,34.08
2017-07-16T13:32:53.268Z,33.41
2017-07-16T13:33:55.152Z,32.71